Time;durP1;ratioP1;P1;durP2;ratioP2;P2;SDS_P1;SDS_P2;PMS_P1;PMS_P2;Temp;Humidity;BMP_temperature;BMP_pressure;BME280_temperature;BME280_humidity;BME280_pressure;Samples;Min_cycle;Max_cycle;Signal;HPM_P1;HPM_P2
2024/01/25 00:01:34;;;;;;;;;2.00;2.00;;;;;8.41;78.48;102704.09;4938662;28;10774;-67
2024/01/25 00:04:01;;;;;;;;;3.25;3.25;;;;;8.49;78.82;102704.25;4937933;28;10554;-66
2024/01/25 00:06:28;;;;;;;;;4.00;2.00;;;;;8.50;78.25;102711.31;4948256;28;10694;-67
2024/01/25 00:08:55;;;;;;;;;6.50;3.00;;;;;8.50;78.25;102724.75;4934340;28;10510;-67
2024/01/25 00:11:21;;;;;;;;;5.75;2.50;;;;;8.43;79.17;102710.19;4956189;28;10767;-66
2024/01/25 00:13:48;;;;;;;;;1.75;1.50;;;;;8.47;78.89;102719.66;4955876;28;10709;-66
2024/01/25 00:16:14;;;;;;;;;5.00;2.25;;;;;8.50;78.45;102721.22;4946823;28;11474;-67
2024/01/25 00:18:42;;;;;;;;;6.25;2.00;;;;;8.54;78.94;102720.81;4943031;29;10743;-66
2024/01/25 00:21:09;;;;;;;;;6.50;5.00;;;;;8.54;78.83;102715.44;4924699;28;11200;-66
2024/01/25 00:23:36;;;;;;;;;7.75;5.75;;;;;8.51;78.73;102713.03;4954373;28;10575;-67
2024/01/25 00:26:02;;;;;;;;;7.00;6.00;;;;;8.51;78.91;102709.50;4955892;28;10481;-67
2024/01/25 00:28:29;;;;;;;;;5.75;4.50;;;;;8.47;78.32;102716.09;4938416;28;10689;-67
2024/01/25 00:30:56;;;;;;;;;5.00;4.00;;;;;8.44;79.00;102727.97;4955744;28;11296;-66
2024/01/25 00:33:22;;;;;;;;;5.00;2.25;;;;;8.42;79.02;102727.25;4925665;28;10648;-68
2024/01/25 00:35:50;;;;;;;;;5.75;4.25;;;;;8.45;79.72;102735.03;4948984;28;10575;-67
2024/01/25 00:38:16;;;;;;;;;8.50;5.75;;;;;8.33;78.95;102728.88;4936784;28;10767;-67
2024/01/25 00:40:43;;;;;;;;;5.50;5.50;;;;;8.37;79.75;102732.16;4947064;29;10742;-67
2024/01/25 00:43:10;;;;;;;;;7.25;3.50;;;;;8.38;79.63;102717.75;4952578;28;10692;-67
2024/01/25 00:45:37;;;;;;;;;4.00;2.50;;;;;8.40;79.43;102731.91;4934395;29;10663;-69
2024/01/25 00:48:04;;;;;;;;;7.75;5.00;;;;;8.36;78.80;102735.81;4934554;29;10758;-67
2024/01/25 00:50:31;;;;;;;;;7.25;5.25;;;;;8.28;79.23;102731.09;4926916;29;10635;-67
2024/01/25 00:52:58;;;;;;;;;5.75;5.00;;;;;8.25;79.49;102747.47;4927771;29;10552;-66
2024/01/25 00:55:25;;;;;;;;;6.00;3.00;;;;;8.25;80.37;102749.31;4933359;29;10628;-66
2024/01/25 00:57:52;;;;;;;;;3.75;3.50;;;;;8.27;79.37;102758.06;4935236;29;10716;-67
2024/01/25 01:00:20;;;;;;;;;5.75;5.00;;;;;8.29;79.86;102767.69;4934710;29;10656;-67
2024/01/25 01:02:47;;;;;;;;;6.00;4.75;;;;;8.29;80.19;102770.34;4950426;29;11420;-67
2024/01/25 01:05:14;;;;;;;;;6.25;5.00;;;;;8.28;79.95;102765.97;4928495;29;10895;-67
2024/01/25 01:07:41;;;;;;;;;5.50;5.50;;;;;8.26;80.04;102757.19;4931965;29;10890;-65
2024/01/25 01:10:09;;;;;;;;;5.00;3.00;;;;;8.31;80.16;102760.38;4929998;29;10655;-67
2024/01/25 01:12:36;;;;;;;;;8.50;2.75;;;;;8.33;79.91;102770.94;4920582;29;10793;-66
2024/01/25 01:15:04;;;;;;;;;3.00;2.25;;;;;8.33;79.81;102762.91;4916643;29;10913;-66
2024/01/25 01:17:30;;;;;;;;;6.00;2.25;;;;;8.31;80.05;102768.41;4921771;29;10748;-65
2024/01/25 01:19:57;;;;;;;;;6.50;5.75;;;;;8.23;80.52;102776.28;4935095;29;10806;-65
2024/01/25 01:22:24;;;;;;;;;3.00;2.75;;;;;8.25;80.31;102770.75;4933163;29;10803;-64
2024/01/25 01:24:51;;;;;;;;;4.75;4.50;;;;;8.28;80.25;102765.13;4933787;29;10794;-63
2024/01/25 01:27:18;;;;;;;;;10.00;6.75;;;;;8.23;80.52;102768.22;4928792;29;10937;-65
2024/01/25 01:29:44;;;;;;;;;5.00;5.00;;;;;8.18;80.74;102763.25;4913425;29;10851;-64
2024/01/25 01:32:11;;;;;;;;;5.50;5.00;;;;;8.10;80.54;102752.34;4916393;29;10867;-64
2024/01/25 01:34:37;;;;;;;;;6.00;5.00;;;;;8.13;80.96;102752.03;4914472;29;10846;-66
2024/01/25 01:37:04;;;;;;;;;5.25;3.50;;;;;8.14;80.68;102764.50;4921526;29;10892;-65
2024/01/25 01:39:31;;;;;;;;;8.50;5.00;;;;;8.04;81.14;102763.56;4933213;29;10737;-65
2024/01/25 01:41:57;;;;;;;;;9.00;5.00;;;;;8.04;81.34;102763.56;4926863;29;10664;-65
2024/01/25 01:44:24;;;;;;;;;3.00;3.00;;;;;8.07;81.75;102770.50;4942865;29;11476;-67
2024/01/25 01:46:50;;;;;;;;;5.75;2.00;;;;;8.09;81.19;102771.22;4949343;28;10795;-68
2024/01/25 01:49:18;;;;;;;;;6.75;5.00;;;;;8.10;81.41;102770.22;4939725;28;10610;-67
2024/01/25 01:51:45;;;;;;;;;6.00;2.75;;;;;8.14;81.45;102777.03;4933984;28;10977;-66
2024/01/25 01:54:12;;;;;;;;;7.75;4.75;;;;;8.11;80.99;102775.47;4954192;28;10864;-65
2024/01/25 01:56:44;;;;;;;;;13.50;5.25;;;;;8.06;81.05;102777.72;4951966;28;10754;-66
2024/01/25 01:59:11;;;;;;;;;5.75;3.00;;;;;8.05;80.62;102778.66;4945696;28;10915;-67
2024/01/25 02:01:38;;;;;;;;;7.50;4.50;;;;;8.04;81.42;102779.66;4949276;28;10800;-68
2024/01/25 02:04:05;;;;;;;;;6.00;3.75;;;;;7.99;81.63;102776.53;4950205;28;10830;-65
2024/01/25 02:06:32;;;;;;;;;9.75;5.75;;;;;8.01;81.78;102779.91;4953459;28;10787;-64
2024/01/25 02:08:59;;;;;;;;;9.00;6.25;;;;;7.98;81.21;102780.19;4919901;28;10798;-65
2024/01/25 02:11:26;;;;;;;;;6.00;4.00;;;;;8.00;81.89;102769.31;4953483;28;10711;-64
2024/01/25 02:13:53;;;;;;;;;5.50;3.00;;;;;7.92;81.96;102770.81;4937846;28;10666;-66
2024/01/25 02:16:20;;;;;;;;;6.00;6.00;;;;;7.91;81.76;102785.22;4935373;28;10950;-65
2024/01/25 02:18:47;;;;;;;;;13.75;5.00;;;;;7.87;81.78;102797.19;4949036;28;10607;-66
2024/01/25 02:21:15;;;;;;;;;5.00;3.25;;;;;7.87;82.33;102794.50;4953447;28;10839;-67
2024/01/25 02:23:41;;;;;;;;;5.00;3.00;;;;;7.89;82.41;102797.88;4944737;28;11549;-66
2024/01/25 02:26:08;;;;;;;;;3.25;2.75;;;;;7.91;82.77;102795.94;4947759;28;10791;-67
2024/01/25 02:28:35;;;;;;;;;8.75;5.25;;;;;7.92;82.50;102800.31;4950618;28;10760;-66
2024/01/25 02:31:02;;;;;;;;;6.00;5.00;;;;;7.92;81.73;102813.72;4941697;29;10973;-66
2024/01/25 02:33:29;;;;;;;;;3.25;2.00;;;;;7.90;82.96;102807.66;4951388;28;11645;-65
2024/01/25 02:35:57;;;;;;;;;7.00;5.00;;;;;7.86;82.42;102810.72;4918262;29;10800;-65
2024/01/25 02:38:24;;;;;;;;;7.50;2.75;;;;;7.85;83.02;102817.03;4938147;28;10877;-65
2024/01/25 02:40:51;;;;;;;;;5.25;3.00;;;;;7.83;82.76;102817.19;4946695;28;10895;-65
2024/01/25 02:43:17;;;;;;;;;4.00;2.50;;;;;7.84;82.85;102820.72;4935665;28;10704;-65
2024/01/25 02:45:44;;;;;;;;;6.25;4.75;;;;;7.77;82.27;102816.81;4932570;28;10741;-64
2024/01/25 02:48:11;;;;;;;;;4.25;2.00;;;;;7.76;83.48;102818.66;4947015;28;10849;-64
2024/01/25 02:50:38;;;;;;;;;4.25;2.50;;;;;7.83;83.17;102814.50;4951897;28;10768;-65
2024/01/25 02:53:05;;;;;;;;;5.00;1.75;;;;;7.83;82.92;102811.81;4934588;29;10582;-64
2024/01/25 02:55:31;;;;;;;;;6.25;3.50;;;;;7.76;83.18;102810.63;4941629;28;10763;-65
2024/01/25 02:57:58;;;;;;;;;6.75;2.50;;;;;7.76;83.82;102813.28;4933745;28;11619;-66
2024/01/25 03:00:25;;;;;;;;;6.50;3.00;;;;;7.74;83.29;102809.91;4935065;28;10933;-64
2024/01/25 03:02:51;;;;;;;;;9.00;4.00;;;;;7.74;83.76;102809.91;4951539;28;10822;-64
2024/01/25 03:05:18;;;;;;;;;3.50;2.50;;;;;7.74;83.90;102812.59;4943321;28;10955;-64
2024/01/25 03:07:45;;;;;;;;;6.25;6.00;;;;;7.73;83.44;102815.38;4935145;28;10786;-64
2024/01/25 03:10:13;;;;;;;;;5.00;4.00;;;;;7.75;83.42;102821.47;4946577;29;10856;-65
2024/01/25 03:12:40;;;;;;;;;5.75;3.00;;;;;7.74;83.89;102809.03;4933119;29;10805;-64
2024/01/25 03:15:07;;;;;;;;;3.00;3.00;;;;;7.73;83.50;102813.53;4932957;29;10586;-65
2024/01/25 03:17:34;;;;;;;;;5.25;3.50;;;;;7.71;84.25;102822.72;4934697;28;10691;-66
2024/01/25 03:20:00;;;;;;;;;1.75;1.75;;;;;7.67;83.92;102825.63;4946782;28;10609;-66
2024/01/25 03:22:27;;;;;;;;;2.00;2.00;;;;;7.68;83.92;102826.47;4946720;28;10674;-65
2024/01/25 03:24:54;;;;;;;;;6.50;2.50;;;;;7.68;84.27;102821.97;4946441;28;11427;-65
2024/01/25 03:27:21;;;;;;;;;2.00;2.00;;;;;7.72;84.02;102819.91;4950547;28;10700;-66
2024/01/25 03:29:48;;;;;;;;;6.00;1.50;;;;;7.72;83.95;102824.41;4949986;28;10694;-65
2024/01/25 03:32:14;;;;;;;;;1.25;1.25;;;;;7.69;84.01;102823.66;4947159;28;10709;-66
2024/01/25 03:34:41;;;;;;;;;3.25;2.50;;;;;7.69;84.01;102822.81;4947340;28;10621;-65
2024/01/25 03:37:08;;;;;;;;;4.50;3.00;;;;;7.67;84.30;102816.75;4950332;28;10762;-66
2024/01/25 03:39:35;;;;;;;;;4.00;2.00;;;;;7.69;84.19;102814.78;4950590;28;11006;-65
2024/01/25 03:42:01;;;;;;;;;5.00;1.00;;;;;7.62;84.58;102816.28;4946617;28;10668;-65
2024/01/25 03:44:28;;;;;;;;;3.25;1.00;;;;;7.62;84.16;102811.78;4941036;29;10613;-65
2024/01/25 03:46:55;;;;;;;;;5.50;5.50;;;;;7.63;84.61;102818.81;4976915;23;10721;-64
2024/01/25 03:49:22;;;;;;;;;3.00;3.00;;;;;7.66;84.34;102817.75;4971357;28;10802;-67
2024/01/25 03:51:50;;;;;;;;;3.50;1.25;;;;;7.71;83.76;102815.53;4952361;28;10974;-65
2024/01/25 03:54:17;;;;;;;;;3.00;2.00;;;;;7.74;83.94;102825.13;4971153;28;10685;-67
2024/01/25 03:56:43;;;;;;;;;4.00;2.50;;;;;7.74;83.88;102827.78;4953143;28;10709;-64
2024/01/25 03:59:12;;;;;;;;;5.00;2.00;;;;;7.74;84.33;102825.13;4971839;28;10768;-64
2024/01/25 04:01:43;;;;;;;;;5.00;2.00;;;;;7.71;83.77;102825.41;4976077;28;11429;-64
2024/01/25 04:04:11;;;;;;;;;5.25;3.25;;;;;7.67;84.46;102819.44;4952163;29;10770;-65
2024/01/25 04:06:43;;;;;;;;;2.00;2.00;;;;;7.64;83.87;102817.84;4960853;28;10672;-70
2024/01/25 04:09:10;;;;;;;;;2.25;2.25;;;;;7.66;84.00;102817.75;4967371;28;10690;-67
2024/01/25 04:11:37;;;;;;;;;6.50;2.75;;;;;7.63;84.05;102809.94;4981825;28;10833;-64
2024/01/25 04:14:05;;;;;;;;;6.00;2.75;;;;;7.63;84.11;102809.94;4970650;28;11482;-66
2024/01/25 04:16:33;;;;;;;;;2.50;2.50;;;;;7.63;84.47;102815.31;4952541;28;10814;-65
2024/01/25 04:19:00;;;;;;;;;5.00;1.75;;;;;7.63;84.29;102809.94;4951758;28;10781;-65
2024/01/25 04:21:27;;;;;;;;;4.75;1.75;;;;;7.63;84.36;102808.09;4966247;28;10741;-66
2024/01/25 04:23:54;;;;;;;;;4.50;1.25;;;;;7.64;83.91;102804.44;4953769;28;10773;-68
2024/01/25 04:26:21;;;;;;;;;3.25;2.00;;;;;7.63;83.79;102807.25;4970896;28;10753;-65
2024/01/25 04:28:47;;;;;;;;;1.75;1.75;;;;;7.60;84.13;102808.34;4956602;28;11067;-65
2024/01/25 04:31:14;;;;;;;;;1.00;1.00;;;;;7.59;84.57;102816.53;4978261;28;10777;-67
2024/01/25 04:33:41;;;;;;;;;1.00;1.00;;;;;7.58;84.29;102821.03;4973531;28;10506;-67
2024/01/25 04:36:14;;;;;;;;;3.25;2.25;;;;;7.57;83.81;102827.34;4969595;28;10653;-65
2024/01/25 04:38:40;;;;;;;;;5.00;4.00;;;;;7.55;83.75;102825.81;4943280;28;10686;-69
2024/01/25 04:41:07;;;;;;;;;2.00;1.00;;;;;7.51;83.92;102824.34;4973127;28;10848;-66
2024/01/25 04:43:36;;;;;;;;;6.75;2.00;;;;;7.48;84.20;102822.75;4967552;28;10784;-65
2024/01/25 04:46:03;;;;;;;;;1.50;1.50;;;;;7.46;83.95;102831.91;4971213;28;10838;-67
2024/01/25 04:48:30;;;;;;;;;2.25;1.00;;;;;7.41;84.25;102833.16;4981760;28;10813;-67
2024/01/25 04:51:00;;;;;;;;;8.75;3.75;;;;;7.38;84.03;102829.84;4968827;28;10866;-68
2024/01/25 04:53:27;;;;;;;;;4.75;4.00;;;;;7.33;83.93;102829.34;4969875;28;10940;-67
2024/01/25 04:55:56;;;;;;;;;4.50;4.50;;;;;7.27;83.66;102828.03;4978489;28;10936;-67
2024/01/25 04:58:23;;;;;;;;;2.50;1.50;;;;;7.22;84.17;102824.88;4973197;28;10695;-69
2024/01/25 05:00:52;;;;;;;;;5.00;1.25;;;;;7.18;84.20;102826.09;4956761;28;10935;-66
2024/01/25 05:03:19;;;;;;;;;5.25;4.00;;;;;7.13;84.48;102836.31;4964886;28;10923;-66
2024/01/25 05:05:47;;;;;;;;;4.25;2.25;;;;;7.09;84.62;102843.78;4954804;28;10807;-67
2024/01/25 05:08:13;;;;;;;;;5.25;4.25;;;;;7.07;84.45;102843.03;4968073;28;10882;-69
2024/01/25 05:10:40;;;;;;;;;5.25;2.75;;;;;7.06;84.82;102845.84;4949221;28;11082;-66
2024/01/25 05:13:09;;;;;;;;;2.00;1.50;;;;;7.04;85.06;102845.09;4954107;28;10946;-66
2024/01/25 05:15:36;;;;;;;;;4.75;2.75;;;;;7.01;84.70;102842.66;4973100;28;11006;-66
2024/01/25 05:18:03;;;;;;;;;4.25;3.00;;;;;6.99;85.49;102839.25;4973675;28;11048;-67
2024/01/25 05:20:32;;;;;;;;;5.25;2.00;;;;;6.99;85.12;102850.81;4956216;28;11819;-69
2024/01/25 05:23:02;;;;;;;;;12.50;3.50;;;;;6.97;84.91;102849.22;4963373;28;10984;-66
2024/01/25 05:25:29;;;;;;;;;2.75;1.75;;;;;6.94;84.88;102859.22;4967026;28;11187;-67
2024/01/25 05:27:57;;;;;;;;;4.00;2.50;;;;;6.92;85.54;102857.63;4964772;28;10907;-67
2024/01/25 05:30:24;;;;;;;;;5.00;4.25;;;;;6.87;85.09;102852.63;4977861;28;11714;-66
2024/01/25 05:32:53;;;;;;;;;4.25;4.25;;;;;6.84;85.69;102847.50;4971251;28;11262;-66
2024/01/25 05:35:20;;;;;;;;;4.75;4.00;;;;;6.83;85.87;102850.31;4965352;28;10993;-66
2024/01/25 05:37:47;;;;;;;;;3.75;2.00;;;;;6.83;85.54;102853.00;4959375;28;11201;-67
2024/01/25 05:40:14;;;;;;;;;5.00;2.00;;;;;6.84;85.62;102858.22;4969359;28;10972;-65
2024/01/25 05:42:40;;;;;;;;;3.50;3.50;;;;;6.85;85.52;102856.41;4969040;28;11093;-67
2024/01/25 05:45:08;;;;;;;;;3.25;3.25;;;;;6.82;85.60;102860.19;4973633;28;11032;-67
2024/01/25 05:47:35;;;;;;;;;5.75;3.50;;;;;6.84;85.74;102857.38;4949563;28;10991;-67
2024/01/25 05:50:04;;;;;;;;;5.00;4.00;;;;;6.81;85.43;102846.94;4937012;28;11196;-66
2024/01/25 05:52:31;;;;;;;;;4.50;2.00;;;;;6.78;85.74;102850.69;4963115;28;11091;-67
2024/01/25 05:54:58;;;;;;;;;6.50;4.75;;;;;6.72;85.90;102863.69;4955866;28;11023;-67
2024/01/25 05:57:28;;;;;;;;;3.75;1.75;;;;;6.73;86.01;102873.44;4951701;28;11167;-66
2024/01/25 05:59:55;;;;;;;;;5.00;2.50;;;;;6.74;85.67;102859.09;4968402;28;11174;-66
2024/01/25 06:02:21;;;;;;;;;5.50;4.00;;;;;6.75;86.00;102858.09;4972885;28;11125;-67
2024/01/25 06:04:48;;;;;;;;;5.25;4.25;;;;;6.73;86.20;102860.91;4966121;28;11058;-67
2024/01/25 06:07:15;;;;;;;;;6.25;3.25;;;;;6.71;86.06;102870.00;4955384;28;11085;-67
2024/01/25 06:09:43;;;;;;;;;6.25;4.75;;;;;6.69;85.85;102875.50;4977590;28;11130;-66
2024/01/25 06:12:09;;;;;;;;;5.25;1.50;;;;;6.67;86.24;102872.06;4949908;28;12007;-69
2024/01/25 06:14:36;;;;;;;;;5.00;4.00;;;;;6.67;86.46;102875.59;4972599;28;11027;-67
2024/01/25 06:17:03;;;;;;;;;5.75;4.00;;;;;6.68;86.27;102869.31;4954925;28;10940;-66
2024/01/25 06:19:29;;;;;;;;;3.50;2.00;;;;;6.68;86.17;102868.41;4972479;28;11078;-66
2024/01/25 06:21:56;;;;;;;;;9.25;4.50;;;;;6.65;85.82;102857.97;4961081;28;10975;-66
2024/01/25 06:24:23;;;;;;;;;4.00;2.00;;;;;6.60;85.49;102852.09;4956650;28;11107;-64
2024/01/25 06:26:49;;;;;;;;;4.00;1.50;;;;;6.60;86.21;102866.38;4953085;28;12492;-66
2024/01/25 06:29:16;;;;;;;;;9.50;6.50;;;;;6.56;86.00;102874.72;4968409;28;11480;-66
2024/01/25 06:31:44;;;;;;;;;5.25;5.25;;;;;6.54;85.83;102885.56;4969100;28;11619;-66
2024/01/25 06:34:11;;;;;;;;;8.00;6.00;;;;;6.53;86.59;102889.22;4953708;28;11275;-68
2024/01/25 06:36:39;;;;;;;;;5.25;5.00;;;;;6.53;86.17;102880.31;4972539;28;11335;-69
2024/01/25 06:39:05;;;;;;;;;5.75;5.00;;;;;6.49;86.28;102878.88;4965520;28;11289;-67
2024/01/25 06:41:33;;;;;;;;;3.50;3.00;;;;;6.44;86.03;102872.03;4971613;28;11202;-68
2024/01/25 06:44:00;;;;;;;;;5.00;4.50;;;;;6.46;86.54;102879.94;4971120;28;11157;-71
2024/01/25 06:46:26;;;;;;;;;5.25;4.75;;;;;6.45;86.56;102878.25;4967283;28;11181;-67
2024/01/25 06:48:53;;;;;;;;;7.00;4.50;;;;;6.45;86.85;102883.59;4963579;28;11471;-66
2024/01/25 06:51:20;;;;;;;;;3.00;3.00;;;;;6.46;87.10;102887.13;4944560;28;11147;-67
2024/01/25 06:53:47;;;;;;;;;4.25;4.25;;;;;6.45;86.52;102880.91;4971363;28;11150;-68
2024/01/25 06:56:13;;;;;;;;;3.00;3.00;;;;;6.46;86.65;102871.06;4954265;28;11138;-66
2024/01/25 06:58:40;;;;;;;;;5.00;4.00;;;;;6.44;86.50;102874.72;4971935;28;11249;-66
2024/01/25 07:01:07;;;;;;;;;4.75;3.75;;;;;6.46;86.56;102873.75;4978519;28;11888;-67
2024/01/25 07:03:34;;;;;;;;;6.00;4.75;;;;;6.42;86.25;102868.63;4991165;28;11440;-67
2024/01/25 07:06:02;;;;;;;;;4.50;3.25;;;;;6.40;86.47;102877.72;4974095;28;12061;-67
2024/01/25 07:08:28;;;;;;;;;6.75;4.00;;;;;6.35;86.18;102875.38;4954150;28;11250;-67
2024/01/25 07:10:56;;;;;;;;;6.00;6.00;;;;;6.33;86.24;102882.69;4957982;28;11469;-67
2024/01/25 07:13:22;;;;;;;;;8.25;6.00;;;;;6.33;86.74;102879.16;4971714;28;11233;-66
2024/01/25 07:15:49;;;;;;;;;11.25;11.25;;;;;6.32;86.91;102872.97;4952041;28;11501;-70
2024/01/25 07:18:17;;;;;;;;;9.00;7.25;;;;;6.32;86.77;102872.09;4969718;28;11519;-67
2024/01/25 07:20:44;;;;;;;;;7.75;4.75;;;;;6.32;86.78;102864.06;4971685;28;11473;-68
2024/01/25 07:23:11;;;;;;;;;9.25;5.75;;;;;6.32;86.70;102862.28;4968671;28;11534;-67
2024/01/25 07:25:37;;;;;;;;;9.00;4.50;;;;;6.32;86.61;102861.41;4971015;28;11546;-69
2024/01/25 07:28:04;;;;;;;;;6.25;4.25;;;;;6.29;86.86;102859.81;4943320;28;11525;-67
2024/01/25 07:30:31;;;;;;;;;8.50;5.25;;;;;6.29;86.74;102859.81;4952188;28;11481;-66
2024/01/25 07:32:58;;;;;;;;;8.00;5.00;;;;;6.27;86.81;102864.44;4935161;28;11183;-66
2024/01/25 07:35:25;;;;;;;;;6.50;5.50;;;;;6.27;87.26;102859.06;4934922;28;11259;-67
2024/01/25 07:37:52;;;;;;;;;5.50;5.50;;;;;6.28;86.80;102879.53;4951933;28;11460;-67
2024/01/25 07:40:19;;;;;;;;;4.25;4.25;;;;;6.29;86.70;102880.38;4941073;28;12244;-66
2024/01/25 07:42:48;;;;;;;;;8.50;5.50;;;;;6.31;87.31;102878.41;4952644;28;11332;-66
2024/01/25 07:45:15;;;;;;;;;8.00;5.00;;;;;6.34;87.24;102887.06;4970861;28;11167;-66
2024/01/25 07:47:43;;;;;;;;;5.25;3.50;;;;;6.36;87.41;102892.28;4953769;28;11362;-66
2024/01/25 07:50:10;;;;;;;;;5.00;5.00;;;;;6.36;87.17;102885.16;4950000;28;11264;-67
2024/01/25 07:52:37;;;;;;;;;4.25;3.50;;;;;6.38;87.67;102885.03;4954327;28;11112;-66
2024/01/25 07:55:04;;;;;;;;;8.00;5.00;;;;;6.40;87.52;102891.09;4934734;29;11455;-67
2024/01/25 07:57:32;;;;;;;;;6.00;5.50;;;;;6.39;87.41;102889.38;4959515;28;11490;-66
2024/01/25 07:59:59;;;;;;;;;5.50;5.00;;;;;6.40;87.99;102889.28;4951668;28;11464;-67
2024/01/25 08:02:25;;;;;;;;;5.75;5.75;;;;;6.36;87.10;102901.19;4965985;28;11465;-67
2024/01/25 08:04:53;;;;;;;;;5.50;5.50;;;;;6.31;87.06;102894.47;4954145;28;12428;-67
2024/01/25 08:07:20;;;;;;;;;8.00;7.00;;;;;6.30;88.28;102890.09;4972364;28;11374;-67
2024/01/25 08:09:47;;;;;;;;;8.00;4.25;;;;;6.32;87.97;102894.38;4974957;28;11479;-68
2024/01/25 08:12:13;;;;;;;;;8.25;5.00;;;;;6.34;87.90;102892.41;4939797;28;11977;-66
2024/01/25 08:14:42;;;;;;;;;9.25;7.50;;;;;6.33;87.50;102898.75;4969803;28;11432;-66
2024/01/25 08:17:10;;;;;;;;;5.75;4.75;;;;;6.32;87.81;102889.03;4974601;28;11542;-67
2024/01/25 08:19:36;;;;;;;;;2.50;2.50;;;;;6.34;88.34;102895.09;4974923;28;11437;-66
2024/01/25 08:22:03;;;;;;;;;7.00;3.50;;;;;6.36;88.03;102886.94;4974747;28;11142;-67
2024/01/25 08:24:30;;;;;;;;;12.25;7.50;;;;;6.37;87.97;102892.19;4974846;28;11425;-66
2024/01/25 08:26:57;;;;;;;;;9.00;5.50;;;;;6.37;87.79;102881.50;4948906;28;11584;-68
2024/01/25 08:29:24;;;;;;;;;12.75;8.00;;;;;6.41;87.89;102887.47;4938054;28;11458;-68
2024/01/25 08:31:50;;;;;;;;;12.25;6.00;;;;;6.38;87.80;102888.53;4968438;28;11467;-67
2024/01/25 08:34:17;;;;;;;;;5.00;5.00;;;;;6.38;88.20;102882.34;4957403;28;12175;-67
2024/01/25 08:36:43;;;;;;;;;6.00;6.00;;;;;6.38;88.24;102885.88;4974485;28;12166;-67
2024/01/25 08:39:10;;;;;;;;;10.00;7.00;;;;;6.37;88.31;102892.19;4974567;28;11515;-67
2024/01/25 08:41:37;;;;;;;;;6.00;5.00;;;;;6.38;88.12;102883.19;4971617;28;11483;-67
2024/01/25 08:44:07;;;;;;;;;8.75;5.00;;;;;6.40;88.41;102881.28;4974648;28;11437;-67
2024/01/25 08:46:33;;;;;;;;;4.00;4.00;;;;;6.46;88.42;102879.94;4974382;28;11440;-66
2024/01/25 08:49:01;;;;;;;;;4.00;2.50;;;;;6.51;88.41;102891.13;4955893;28;11150;-67
2024/01/25 08:51:28;;;;;;;;;5.25;5.25;;;;;6.54;88.04;102892.72;4955101;28;11205;-67
2024/01/25 08:53:54;;;;;;;;;6.50;5.00;;;;;6.54;87.91;102885.56;4955077;28;12263;-67
2024/01/25 08:56:21;;;;;;;;;7.00;5.00;;;;;6.57;88.10;102892.50;4938435;28;12123;-67
2024/01/25 08:58:48;;;;;;;;;5.75;4.50;;;;;6.59;88.72;102890.53;4955884;28;11145;-67
2024/01/25 09:01:15;;;;;;;;;11.00;6.00;;;;;6.59;87.46;102887.88;4974122;28;11085;-67
2024/01/25 09:03:41;;;;;;;;;9.25;7.00;;;;;6.62;88.02;102890.31;4972991;28;11234;-66
2024/01/25 09:06:09;;;;;;;;;4.75;4.50;;;;;6.62;87.88;102891.16;4975942;28;11701;-70
2024/01/25 09:08:36;;;;;;;;;9.50;6.00;;;;;6.62;88.28;102901.88;4975349;28;11415;-67
2024/01/25 09:11:03;;;;;;;;;11.00;7.75;;;;;6.59;88.31;102895.91;4975676;28;11361;-67
2024/01/25 09:13:29;;;;;;;;;6.75;5.25;;;;;6.61;87.86;102894.81;4982085;28;11490;-67
2024/01/25 09:15:56;;;;;;;;;5.75;5.75;;;;;6.62;87.83;102893.84;4973570;28;11536;-67
2024/01/25 09:18:23;;;;;;;;;8.75;6.50;;;;;6.65;88.29;102888.25;4965477;28;12238;-67
2024/01/25 09:20:50;;;;;;;;;8.00;5.00;;;;;6.68;88.37;102890.72;4978442;28;11503;-70
2024/01/25 09:23:17;;;;;;;;;6.25;5.75;;;;;6.68;88.44;102884.47;4954109;28;11270;-67
2024/01/25 09:25:45;;;;;;;;;9.00;9.00;;;;;6.70;88.04;102890.56;4954032;28;11318;-67
2024/01/25 09:28:12;;;;;;;;;4.00;4.00;;;;;6.74;88.17;102886.69;4953824;28;12177;-66
2024/01/25 09:30:39;;;;;;;;;11.25;7.50;;;;;6.78;87.90;102880.13;4955194;28;11257;-67
2024/01/25 09:33:07;;;;;;;;;8.25;7.00;;;;;6.81;88.18;102879.91;4936779;28;11207;-67
2024/01/25 09:35:34;;;;;;;;;7.50;5.50;;;;;6.84;87.87;102885.00;4957147;28;12303;-67
2024/01/25 09:38:01;;;;;;;;;8.00;8.00;;;;;6.85;87.96;102881.38;4972426;28;11233;-68
2024/01/25 09:40:28;;;;;;;;;7.75;6.50;;;;;6.84;87.93;102889.50;4965095;28;11465;-68
2024/01/25 09:42:55;;;;;;;;;8.50;7.00;;;;;6.86;87.84;102876.84;4956042;28;11461;-67
2024/01/25 09:45:49;;;;;;;;;8.50;8.50;;;;;6.87;87.44;102874.06;4970788;28;11589;-68
2024/01/25 09:48:16;;;;;;;;;9.25;6.75;;;;;6.90;87.73;102863.09;4896203;29;11559;-65
2024/01/25 09:50:46;;;;;;;;;10.50;6.25;;;;;6.99;87.85;102872.25;4915047;29;12255;-65
2024/01/25 09:53:19;;;;;;;;;14.00;9.25;;;;;7.03;87.55;102872.84;4896271;29;11662;-66
2024/01/25 09:55:52;;;;;;;;;8.50;6.75;;;;;7.08;87.77;102865.28;4880831;29;11335;-66
2024/01/25 09:58:20;;;;;;;;;9.25;8.50;;;;;7.15;87.06;102863.84;4896187;29;11532;-65
2024/01/25 10:00:47;;;;;;;;;13.25;9.25;;;;;7.17;87.14;102868.13;4879366;29;11345;-66
2024/01/25 10:03:13;;;;;;;;;10.00;8.25;;;;;7.19;86.81;102876.88;4896217;29;11261;-66
2024/01/25 10:05:40;;;;;;;;;9.75;6.25;;;;;7.20;86.77;102891.09;4879564;29;11652;-66
2024/01/25 10:08:13;;;;;;;;;8.00;7.25;;;;;7.22;87.08;102877.63;4895919;29;11234;-66
2024/01/25 10:10:40;;;;;;;;;9.25;8.50;;;;;7.24;86.56;102859.56;4896071;29;11071;-66
2024/01/25 10:13:12;;;;;;;;;11.50;8.50;;;;;7.24;86.45;102860.41;4894630;29;11291;-66
2024/01/25 10:15:41;;;;;;;;;11.50;9.00;;;;;7.22;86.24;102866.91;4896016;29;11327;-66
2024/01/25 10:18:12;;;;;;;;;13.50;9.25;;;;;7.24;86.76;102872.97;4895389;29;11406;-66
2024/01/25 10:20:55;;;;;;;;;7.25;6.75;;;;;7.24;86.75;102875.66;4879126;29;11589;-66
2024/01/25 10:23:22;;;;;;;;;12.50;10.25;;;;;7.25;86.73;102875.53;4895937;29;11281;-66
2024/01/25 10:25:49;;;;;;;;;11.50;6.00;;;;;7.29;87.10;102868.09;4895663;29;11272;-66
2024/01/25 10:28:16;;;;;;;;;12.50;11.25;;;;;7.25;86.87;102875.53;4895572;29;11311;-66
2024/01/25 10:30:43;;;;;;;;;10.50;7.50;;;;;7.30;86.81;102864.47;4878435;29;11494;-66
2024/01/25 10:33:10;;;;;;;;;9.00;9.00;;;;;7.32;86.76;102860.66;4896180;29;11335;-66
2024/01/25 10:35:38;;;;;;;;;9.75;8.50;;;;;7.36;86.36;102870.16;4895285;29;11326;-66
2024/01/25 10:38:06;;;;;;;;;7.75;7.25;;;;;7.39;86.53;102875.28;4878275;29;11907;-66
2024/01/25 10:40:33;;;;;;;;;8.50;7.50;;;;;7.41;86.85;102885.84;4878924;29;11118;-66
2024/01/25 10:43:00;;;;;;;;;9.75;8.25;;;;;7.42;86.08;102885.75;4895809;29;11112;-66
2024/01/25 10:45:27;;;;;;;;;9.00;9.00;;;;;7.48;86.32;102888.91;4895474;29;11181;-66
2024/01/25 10:47:53;;;;;;;;;9.50;8.75;;;;;7.50;85.63;102885.13;4895636;29;11198;-66
2024/01/25 10:50:20;;;;;;;;;12.50;9.50;;;;;7.53;86.20;102882.19;4895419;29;11103;-68
2024/01/25 10:52:48;;;;;;;;;9.25;6.25;;;;;7.54;86.30;102878.56;4895208;29;11043;-66
2024/01/25 10:55:15;;;;;;;;;7.00;5.50;;;;;7.56;86.18;102870.38;4895681;29;11009;-66
2024/01/25 10:57:45;;;;;;;;;10.50;9.75;;;;;7.59;86.28;102856.72;4895442;29;11025;-66
2024/01/25 11:00:14;;;;;;;;;10.75;10.75;;;;;7.58;86.10;102857.72;4895485;29;11164;-66
2024/01/25 11:02:42;;;;;;;;;10.25;6.00;;;;;7.58;85.77;102839.81;4895453;29;11248;-66
2024/01/25 11:05:17;;;;;;;;;10.75;10.00;;;;;7.58;86.33;102830.91;4894520;29;11102;-66
2024/01/25 11:07:48;;;;;;;;;15.00;10.75;;;;;7.53;86.20;102843.81;4894899;29;11161;-66
2024/01/25 11:10:24;;;;;;;;;15.25;10.75;;;;;7.49;86.40;102864.66;4878501;29;11514;-66
2024/01/25 11:12:59;;;;;;;;;9.75;9.75;;;;;7.50;86.28;102860.16;4895195;29;11484;-67
2024/01/25 11:15:34;;;;;;;;;9.75;9.75;;;;;7.51;86.67;102851.16;4895121;29;11449;-66
2024/01/25 11:18:03;;;;;;;;;13.75;12.75;;;;;7.60;87.09;102845.03;4877953;29;11121;-67
2024/01/25 11:20:31;;;;;;;;;10.00;8.50;;;;;7.63;86.85;102840.28;4895135;29;11623;-66
2024/01/25 11:23:01;;;;;;;;;9.75;9.50;;;;;7.65;86.41;102816.00;4895427;29;11132;-66
2024/01/25 11:25:31;;;;;;;;;12.50;9.00;;;;;7.60;86.47;102802.16;4878811;29;11183;-67
2024/01/25 11:28:03;;;;;;;;;18.00;13.50;;;;;7.59;86.70;102795.09;4878134;29;11213;-65
2024/01/25 11:30:33;;;;;;;;;13.50;11.00;;;;;7.63;86.50;102804.59;4878579;29;11494;-66
2024/01/25 11:33:04;;;;;;;;;13.50;8.25;;;;;7.68;86.84;102805.03;4895402;29;11984;-66